createdAt,value
2023-01-19T00:03:15.956Z,-2.36
2023-01-19T00:08:20.214Z,-2.37
2023-01-19T00:13:22.896Z,-2.28
2023-01-19T00:18:25.871Z,-2.42
2023-01-19T00:23:30.099Z,-2.23
2023-01-19T00:28:33.008Z,-2.31
2023-01-19T00:33:35.864Z,-2.20
2023-01-19T00:38:40.034Z,-2.20
2023-01-19T00:43:42.866Z,-2.31
2023-01-19T00:48:45.665Z,-2.33
2023-01-19T00:53:49.716Z,-2.31
2023-01-19T00:58:52.538Z,-2.26
2023-01-19T01:03:57.063Z,-2.18
2023-01-19T01:09:11.740Z,-2.05
2023-01-19T01:14:14.821Z,-1.78
2023-01-19T01:19:17.939Z,-1.54
2023-01-19T01:24:22.421Z,-1.26
2023-01-19T01:29:25.333Z,-1.03
2023-01-19T01:34:28.460Z,-1.06
2023-01-19T01:39:32.987Z,-1.00
2023-01-19T01:44:50.760Z,-0.93
2023-01-19T01:50:01.289Z,-0.86
2023-01-19T01:55:07.978Z,-0.84
2023-01-19T02:00:12.500Z,-0.77
2023-01-19T02:05:19.389Z,-0.74
2023-01-19T02:10:40.899Z,-0.73
2023-01-19T02:15:43.725Z,-0.75
2023-01-19T02:20:54.305Z,-0.76
2023-01-19T02:25:59.466Z,-0.80
2023-01-19T02:31:02.300Z,-0.83
2023-01-19T02:36:08.071Z,-0.87
2023-01-19T02:41:16.199Z,-0.86
2023-01-19T02:46:18.931Z,-0.90
2023-01-19T02:51:25.130Z,-0.92
2023-01-19T02:56:43.408Z,-0.90
2023-01-19T03:02:16.529Z,-0.90
2023-01-19T03:07:31.550Z,-1.02
2023-01-19T03:12:41.842Z,-1.10
2023-01-19T03:17:46.240Z,-1.16
2023-01-19T03:22:52.592Z,-1.20
2023-01-19T03:27:58.772Z,-1.29
2023-01-19T03:33:07.260Z,-1.29
2023-01-19T03:38:16.645Z,-1.30
2023-01-19T03:43:23.192Z,-1.23
2023-01-19T03:48:26.481Z,-1.18
2023-01-19T03:53:29.306Z,-1.05
2023-01-19T03:58:33.502Z,-0.96
2023-01-19T04:03:36.291Z,-0.88
2023-01-19T04:08:39.074Z,-0.81
2023-01-19T04:13:43.335Z,-0.68
2023-01-19T04:18:46.254Z,-0.65
2023-01-19T04:23:49.852Z,-0.61
2023-01-19T04:28:53.994Z,-0.61
2023-01-19T04:33:57.183Z,-0.59
2023-01-19T04:39:00.032Z,-0.59
2023-01-19T04:44:05.004Z,-0.59
2023-01-19T04:49:07.920Z,-0.56
2023-01-19T04:54:10.778Z,-0.56
2023-01-19T04:59:15.247Z,-0.58
2023-01-19T05:04:18.129Z,-0.62
2023-01-19T05:09:21.207Z,-0.64
2023-01-19T05:14:25.457Z,-0.68
2023-01-19T05:19:28.151Z,-0.68
2023-01-19T05:24:30.935Z,-0.66
2023-01-19T05:29:35.397Z,-0.70
2023-01-19T05:34:38.112Z,-0.72
2023-01-19T05:39:40.862Z,-0.66
2023-01-19T05:44:44.918Z,-0.61
2023-01-19T05:49:47.636Z,-0.56
2023-01-19T05:54:51.344Z,-0.54
2023-01-19T05:59:55.475Z,-0.50
2023-01-19T06:04:58.375Z,-0.44
2023-01-19T06:10:01.186Z,-0.39
2023-01-19T06:15:06.118Z,-0.35
2023-01-19T06:20:10.418Z,-0.32
2023-01-19T06:25:13.247Z,-0.28
2023-01-19T06:30:17.991Z,-0.22
2023-01-19T06:35:20.863Z,-0.12
2023-01-19T06:40:23.591Z,-0.09
2023-01-19T06:45:27.747Z,-0.11
2023-01-19T06:50:30.765Z,-0.11
2023-01-19T06:55:35.654Z,-0.12
2023-01-19T07:00:40.327Z,-0.10
2023-01-19T07:05:43.124Z,-0.11
2023-01-19T07:11:26.141Z,-0.10
2023-01-19T07:16:12.458Z,-0.09
2023-01-19T07:21:15.486Z,-0.04
2023-01-19T07:26:19.816Z,0.05
2023-01-19T07:31:24.449Z,0.19
2023-01-19T07:36:27.260Z,0.25
2023-01-19T07:41:31.428Z,0.32
2023-01-19T07:46:35.762Z,0.36
2023-01-19T07:51:38.473Z,0.40
2023-01-19T07:56:41.439Z,0.45
2023-01-19T08:01:45.768Z,0.47
2023-01-19T08:06:48.656Z,0.46
2023-01-19T08:11:51.534Z,0.45
2023-01-19T08:16:55.672Z,0.47
2023-01-19T08:21:59.012Z,0.45
2023-01-19T08:27:04.058Z,0.39
2023-01-19T08:32:08.489Z,0.42
2023-01-19T08:37:11.513Z,0.33
2023-01-19T08:42:14.288Z,0.30
2023-01-19T08:47:18.430Z,0.28
2023-01-19T08:52:21.269Z,0.40
2023-01-19T08:57:24.106Z,0.58
2023-01-19T09:02:28.349Z,0.84
2023-01-19T09:07:33.848Z,1.04
2023-01-19T09:12:38.031Z,1.15
2023-01-19T09:17:42.682Z,1.35
2023-01-19T09:22:47.491Z,1.50
2023-01-19T09:27:50.645Z,1.34
2023-01-19T09:32:54.780Z,1.38
2023-01-19T09:37:57.553Z,1.33
2023-01-19T09:43:13.322Z,1.30
2023-01-19T09:48:30.023Z,1.30
2023-01-19T09:53:50.479Z,1.25
2023-01-19T09:58:53.979Z,1.18
2023-01-19T10:04:15.953Z,1.07
2023-01-19T10:09:26.312Z,1.12
2023-01-19T10:14:37.604Z,1.23
2023-01-19T10:19:48.549Z,1.20
2023-01-19T10:24:55.786Z,1.29
2023-01-19T10:29:59.504Z,1.24
2023-01-19T10:35:22.484Z,1.33
2023-01-19T10:40:35.458Z,1.41
2023-01-19T10:45:39.061Z,1.44
2023-01-19T10:50:43.738Z,1.48
2023-01-19T10:55:47.397Z,1.51
2023-01-19T11:00:50.286Z,1.45
2023-01-19T11:05:54.580Z,1.40
2023-01-19T11:11:02.370Z,1.33
2023-01-19T11:16:08.129Z,1.37
2023-01-19T11:21:15.540Z,1.49
2023-01-19T11:26:27.363Z,1.67
2023-01-19T11:31:35.662Z,1.60
2023-01-19T11:36:40.115Z,1.47
2023-01-19T11:41:42.966Z,1.36
2023-01-19T11:46:50.058Z,1.34
2023-01-19T11:52:02.854Z,1.30
2023-01-19T11:57:13.645Z,1.39
2023-01-19T12:02:28.385Z,1.48
2023-01-19T12:07:36.604Z,1.58
2023-01-19T12:12:42.468Z,1.47
2023-01-19T12:17:50.901Z,1.56
2023-01-19T12:23:04.551Z,1.71
2023-01-19T12:28:14.165Z,1.99
2023-01-19T12:33:34.361Z,2.14
2023-01-19T12:38:48.829Z,2.10
2023-01-19T12:44:20.380Z,2.03
2023-01-19T12:49:30.645Z,1.88
2023-01-19T12:54:35.069Z,1.94
2023-01-19T12:59:40.625Z,1.96
2023-01-19T13:05:17.119Z,1.96
2023-01-19T13:10:56.845Z,2.18
2023-01-19T13:16:22.362Z,2.23
2023-01-19T13:21:29.806Z,2.46
2023-01-19T13:26:36.978Z,2.53
2023-01-19T13:31:41.678Z,2.38
2023-01-19T13:36:47.877Z,2.38
2023-01-19T13:41:55.492Z,2.34
2023-01-19T13:46:59.811Z,2.41
2023-01-19T13:52:17.522Z,2.47
2023-01-19T13:57:27.039Z,2.67
2023-01-19T14:02:29.860Z,2.84
2023-01-19T14:07:32.933Z,2.72
2023-01-19T14:12:45.578Z,2.58
2023-01-19T14:18:09.869Z,2.62
2023-01-19T14:23:45.438Z,2.60
2023-01-19T14:28:49.569Z,2.55
2023-01-19T14:33:54.002Z,2.55
2023-01-19T14:38:59.471Z,2.52
2023-01-19T14:44:08.484Z,2.46
2023-01-19T14:49:20.105Z,2.45
2023-01-19T14:54:30.766Z,2.58
2023-01-19T14:59:34.902Z,2.85
2023-01-19T15:04:37.611Z,2.88
2023-01-19T15:09:40.503Z,2.88
2023-01-19T15:14:45.235Z,2.87
2023-01-19T15:19:47.967Z,2.84
2023-01-19T15:24:50.887Z,2.80
2023-01-19T15:29:55.274Z,2.86
2023-01-19T15:34:58.038Z,2.86
2023-01-19T15:40:00.835Z,2.73
2023-01-19T15:45:33.691Z,2.66
2023-01-19T15:50:38.689Z,2.54
2023-01-19T15:55:41.479Z,2.48
2023-01-19T16:00:45.621Z,2.43
2023-01-19T16:05:48.775Z,2.37
2023-01-19T16:10:51.619Z,2.28
2023-01-19T16:15:55.654Z,2.21
2023-01-19T16:20:58.611Z,2.18
2023-01-19T16:26:04.804Z,2.10
2023-01-19T16:31:08.976Z,2.07
2023-01-19T16:36:24.541Z,2.05
2023-01-19T16:41:34.215Z,1.99
2023-01-19T16:46:41.256Z,1.96
2023-01-19T16:51:44.190Z,1.91
2023-01-19T16:56:47.251Z,1.85
2023-01-19T17:01:52.190Z,1.77
2023-01-19T17:06:55.385Z,1.69
2023-01-19T17:11:59.154Z,1.64
2023-01-19T17:17:04.252Z,1.59
2023-01-19T17:22:07.438Z,1.51
2023-01-19T17:27:10.430Z,1.46
2023-01-19T17:32:14.609Z,1.42
2023-01-19T17:37:17.366Z,1.36
2023-01-19T17:42:20.134Z,1.33
2023-01-19T17:47:25.944Z,1.26
2023-01-19T17:52:28.809Z,1.22
2023-01-19T17:57:31.668Z,1.19
2023-01-19T18:02:35.876Z,1.15
2023-01-19T18:07:38.747Z,1.10
2023-01-19T18:12:42.691Z,1.02
2023-01-19T18:17:47.594Z,0.95
2023-01-19T18:22:50.315Z,0.94
2023-01-19T18:27:53.259Z,0.89
2023-01-19T18:32:57.429Z,0.85
2023-01-19T18:38:00.378Z,0.81
2023-01-19T18:43:03.339Z,0.79
2023-01-19T18:48:07.723Z,0.76
2023-01-19T18:53:10.558Z,0.69
2023-01-19T18:58:13.617Z,0.64
2023-01-19T19:03:18.372Z,0.60
2023-01-19T19:08:21.285Z,0.60
2023-01-19T19:13:24.312Z,0.61
2023-01-19T19:18:28.619Z,0.59
2023-01-19T19:23:31.432Z,0.59
2023-01-19T19:28:36.811Z,0.53
2023-01-19T19:33:41.655Z,0.49
2023-01-19T19:38:47.134Z,0.46
2023-01-19T19:43:50.275Z,0.39
2023-01-19T19:48:55.521Z,0.33
2023-01-19T19:54:00.031Z,0.28
2023-01-19T19:59:02.925Z,0.15
2023-01-19T20:04:09.220Z,0.06
2023-01-19T20:09:13.988Z,-0.06
2023-01-19T20:14:17.199Z,-0.17
2023-01-19T20:19:21.346Z,-0.26
2023-01-19T20:24:24.130Z,-0.33
2023-01-19T20:29:26.981Z,-0.35
2023-01-19T20:34:33.874Z,-0.48
2023-01-19T20:39:37.126Z,-0.54
2023-01-19T20:44:40.660Z,-0.61
2023-01-19T20:49:44.896Z,-0.66
2023-01-19T20:54:47.663Z,-0.67
2023-01-19T20:59:50.453Z,-0.79
2023-01-19T21:04:54.844Z,-0.88
2023-01-19T21:09:57.596Z,-0.92
2023-01-19T21:15:00.409Z,-0.98
2023-01-19T21:20:05.321Z,-1.10
2023-01-19T21:25:08.571Z,-1.23
2023-01-19T21:30:12.214Z,-1.36
2023-01-19T21:35:16.925Z,-1.42
2023-01-19T21:40:20.183Z,-1.47
2023-01-19T21:45:23.734Z,-1.53
2023-01-19T21:50:27.953Z,-1.59
2023-01-19T21:55:31.324Z,-1.59
2023-01-19T22:00:34.485Z,-1.66
2023-01-19T22:05:38.692Z,-1.73
2023-01-19T22:10:41.549Z,-1.78
2023-01-19T22:15:44.343Z,-1.88
2023-01-19T22:20:48.420Z,-1.90
2023-01-19T22:25:51.232Z,-1.91
2023-01-19T22:30:54.108Z,-1.98
2023-01-19T22:36:10.691Z,-2.05
2023-01-19T22:41:15.149Z,-2.17
2023-01-19T22:46:19.749Z,-2.22
2023-01-19T22:51:25.591Z,-2.30
2023-01-19T22:56:30.062Z,-2.35
2023-01-19T23:01:34.822Z,-2.40
2023-01-19T23:06:39.358Z,-2.42
2023-01-19T23:11:43.809Z,-2.45
2023-01-19T23:16:47.739Z,-2.59
2023-01-19T23:21:53.370Z,-2.56
2023-01-19T23:26:56.087Z,-2.58
2023-01-19T23:31:59.060Z,-2.63
2023-01-19T23:37:03.144Z,-2.64
2023-01-19T23:42:08.167Z,-2.68
2023-01-19T23:47:10.926Z,-2.64
2023-01-19T23:52:14.979Z,-2.64
2023-01-19T23:57:17.742Z,-2.74
